Time;durP1;ratioP1;P1;durP2;ratioP2;P2;SDS_P1;SDS_P2;PMS_P1;PMS_P2;Temp;Humidity;BMP_temperature;BMP_pressure;BME280_temperature;BME280_humidity;BME280_pressure;Samples;Min_cycle;Max_cycle;Signal;HPM_P1;HPM_P2
2022/07/19 00:02:01;;;;;;;;;;;26.70;40.90;;;;;;5004739;28;20390;-80
2022/07/19 00:04:27;;;;;;;;;;;26.60;41.00;;;;;;5002103;28;19940;-79
2022/07/19 00:06:55;;;;;;;;;;;26.60;41.40;;;;;;4998081;28;19933;-78
2022/07/19 00:09:21;;;;;;;;;;;26.50;41.20;;;;;;5002034;28;20034;-79
2022/07/19 00:11:49;;;;;;;;;;;26.50;41.50;;;;;;5002442;28;19941;-79
2022/07/19 00:14:16;;;;;;;;;;;26.40;41.90;;;;;;5001603;28;20480;-79
2022/07/19 00:16:43;;;;;;;;;;;26.40;41.90;;;;;;4999477;28;19957;-79
2022/07/19 00:19:09;;;;;;;;;;;26.40;42.60;;;;;;4998504;28;19929;-80
2022/07/19 00:21:36;;;;;;;;;;;26.30;41.90;;;;;;5002174;28;19948;-79
2022/07/19 00:24:02;;;;;;;;;;;26.30;41.80;;;;;;5002460;28;19929;-79
2022/07/19 00:26:29;;;;;;;;;;;26.20;42.10;;;;;;5002833;28;19940;-79
2022/07/19 00:28:57;;;;;;;;;;;26.20;42.20;;;;;;5002440;28;19925;-79
2022/07/19 00:31:24;;;;;;;;;;;26.10;42.30;;;;;;5002448;28;19936;-79
2022/07/19 00:33:51;;;;;;;;;;;26.10;42.30;;;;;;5002729;28;20024;-78
2022/07/19 00:36:17;;;;;;;;;;;26.10;42.50;;;;;;5002485;28;21768;-79
2022/07/19 00:38:44;;;;;;;;;;;26.00;42.60;;;;;;5004273;28;19936;-79
2022/07/19 00:41:11;;;;;;;;;;;25.90;42.70;;;;;;5002761;28;19941;-79
2022/07/19 00:43:39;;;;;;;;;;;25.90;42.60;;;;;;5004859;28;19929;-79
2022/07/19 00:46:13;;;;;;;;;;;25.90;42.80;;;;;;5001945;28;20655;-79
2022/07/19 00:48:40;;;;;;;;;;;25.80;42.70;;;;;;4997887;28;19968;-79
2022/07/19 00:51:07;;;;;;;;;;;25.80;42.90;;;;;;5003996;28;19936;-79
2022/07/19 00:53:35;;;;;;;;;;;25.70;43.70;;;;;;5000454;28;19925;-79
2022/07/19 00:56:03;;;;;;;;;;;25.70;43.20;;;;;;4998865;28;19940;-79
2022/07/19 00:58:29;;;;;;;;;;;25.70;43.20;;;;;;5001990;28;20508;-80
2022/07/19 01:00:56;;;;;;;;;;;25.60;43.30;;;;;;5002414;28;19929;-79
2022/07/19 01:03:24;;;;;;;;;;;25.60;43.50;;;;;;5002851;28;19939;-80
2022/07/19 01:05:51;;;;;;;;;;;25.50;43.40;;;;;;5005151;28;19934;-79
2022/07/19 01:08:18;;;;;;;;;;;25.50;43.40;;;;;;5001276;28;19941;-79
2022/07/19 01:10:44;;;;;;;;;;;25.40;43.40;;;;;;5000733;28;19937;-79
2022/07/19 01:13:13;;;;;;;;;;;25.40;43.50;;;;;;5001404;28;20311;-79
2022/07/19 01:15:40;;;;;;;;;;;25.30;43.50;;;;;;5000675;28;19937;-79
2022/07/19 01:18:07;;;;;;;;;;;25.30;43.60;;;;;;5002048;28;20321;-79
2022/07/19 01:20:35;;;;;;;;;;;25.30;43.90;;;;;;5006216;28;19936;-79
2022/07/19 01:23:03;;;;;;;;;;;25.30;44.40;;;;;;4999774;28;19941;-79
2022/07/19 01:25:31;;;;;;;;;;;25.20;43.70;;;;;;5003828;28;19929;-78
2022/07/19 01:27:57;;;;;;;;;;;25.10;43.80;;;;;;5002168;28;19930;-79
2022/07/19 01:30:25;;;;;;;;;;;25.10;44.00;;;;;;5002681;28;19929;-78
2022/07/19 01:32:52;;;;;;;;;;;25.10;44.00;;;;;;5006218;28;20016;-79
2022/07/19 01:35:19;;;;;;;;;;;25.10;44.00;;;;;;5000454;28;19936;-79
2022/07/19 01:37:46;;;;;;;;;;;25.00;44.20;;;;;;5000963;28;19933;-79
2022/07/19 01:40:15;;;;;;;;;;;24.90;44.10;;;;;;4999634;28;20462;-80
2022/07/19 01:42:41;;;;;;;;;;;24.90;44.30;;;;;;4999639;28;19944;-79
2022/07/19 01:45:08;;;;;;;;;;;24.90;44.40;;;;;;5000857;28;19934;-78
2022/07/19 01:47:35;;;;;;;;;;;24.90;44.60;;;;;;4998823;28;19930;-79
2022/07/19 01:50:02;;;;;;;;;;;24.90;44.50;;;;;;5001508;28;19930;-79
2022/07/19 01:52:28;;;;;;;;;;;24.80;44.50;;;;;;5000234;28;19929;-79
2022/07/19 01:54:55;;;;;;;;;;;24.80;44.60;;;;;;5001794;28;19945;-80
2022/07/19 01:57:23;;;;;;;;;;;24.70;44.70;;;;;;5001289;28;19933;-79
2022/07/19 01:59:49;;;;;;;;;;;24.70;44.90;;;;;;5001691;28;19937;-79
2022/07/19 02:02:16;;;;;;;;;;;24.70;44.90;;;;;;4999185;28;19933;-79
2022/07/19 02:04:42;;;;;;;;;;;24.70;45.00;;;;;;5000670;28;19968;-79
2022/07/19 02:07:09;;;;;;;;;;;24.60;45.10;;;;;;4999213;28;20762;-79
2022/07/19 02:09:35;;;;;;;;;;;24.50;45.00;;;;;;4999801;28;19930;-79
2022/07/19 02:12:02;;;;;;;;;;;24.50;45.00;;;;;;4998952;28;19936;-79
2022/07/19 02:14:30;;;;;;;;;;;24.50;45.30;;;;;;4997574;28;19937;-79
2022/07/19 02:16:56;;;;;;;;;;;24.50;45.40;;;;;;4996840;28;19933;-79
2022/07/19 02:19:23;;;;;;;;;;;24.40;45.40;;;;;;5000946;28;19930;-79
2022/07/19 02:21:49;;;;;;;;;;;24.40;45.50;;;;;;5001770;28;19941;-79
2022/07/19 02:24:16;;;;;;;;;;;24.30;45.50;;;;;;4999227;28;19937;-79
2022/07/19 02:26:43;;;;;;;;;;;24.30;45.60;;;;;;4998285;28;19941;-79
2022/07/19 02:29:10;;;;;;;;;;;24.30;45.80;;;;;;5004434;28;19929;-80
2022/07/19 02:31:37;;;;;;;;;;;24.30;45.70;;;;;;5000558;28;19968;-79
2022/07/19 02:34:04;;;;;;;;;;;24.20;45.80;;;;;;5000379;28;19930;-79
2022/07/19 02:36:30;;;;;;;;;;;24.20;45.90;;;;;;4999142;28;19940;-79
2022/07/19 02:38:58;;;;;;;;;;;24.20;46.00;;;;;;4998231;28;19960;-79
2022/07/19 02:41:24;;;;;;;;;;;24.10;46.00;;;;;;5000809;28;19935;-79
2022/07/19 02:43:51;;;;;;;;;;;24.10;46.10;;;;;;4997781;28;20739;-79
2022/07/19 02:46:18;;;;;;;;;;;24.10;46.10;;;;;;4998347;28;19929;-79
2022/07/19 02:48:45;;;;;;;;;;;24.00;46.10;;;;;;4998756;28;20464;-79
2022/07/19 02:51:12;;;;;;;;;;;24.00;46.20;;;;;;5002964;28;20413;-80
2022/07/19 02:53:39;;;;;;;;;;;24.00;46.50;;;;;;5000087;28;20313;-79
2022/07/19 02:56:06;;;;;;;;;;;24.00;46.50;;;;;;5001131;28;20302;-79
2022/07/19 02:58:32;;;;;;;;;;;23.90;46.60;;;;;;5001870;28;19929;-79
2022/07/19 03:00:59;;;;;;;;;;;23.90;46.60;;;;;;5001411;28;19972;-79
2022/07/19 03:06:11;;;;;;;;;;;23.80;46.80;;;;;;4999563;28;19933;-78
2022/07/19 03:08:38;;;;;;;;;;;23.80;46.80;;;;;;4997567;28;19944;-78
2022/07/19 03:11:04;;;;;;;;;;;23.70;46.90;;;;;;4999518;28;19936;-79
2022/07/19 03:13:31;;;;;;;;;;;23.70;46.80;;;;;;5000151;28;19933;-79
2022/07/19 03:15:58;;;;;;;;;;;23.70;47.00;;;;;;4996409;28;19936;-79
2022/07/19 03:18:24;;;;;;;;;;;23.70;47.00;;;;;;4997895;28;19937;-76
2022/07/19 03:20:51;;;;;;;;;;;23.60;47.20;;;;;;5006238;28;19984;-77
2022/07/19 03:23:19;;;;;;;;;;;23.60;47.20;;;;;;4998358;28;19937;-76
2022/07/19 03:25:45;;;;;;;;;;;23.60;47.30;;;;;;5001067;28;19936;-78
2022/07/19 03:28:12;;;;;;;;;;;23.60;47.30;;;;;;5001048;28;19934;-77
2022/07/19 03:30:39;;;;;;;;;;;23.50;47.40;;;;;;4999466;28;19937;-77
2022/07/19 03:33:05;;;;;;;;;;;23.50;47.40;;;;;;4997946;28;19970;-76
2022/07/19 03:35:32;;;;;;;;;;;23.40;47.40;;;;;;4999198;28;19940;-76
2022/07/19 03:37:58;;;;;;;;;;;23.50;47.60;;;;;;4997277;28;19936;-76
2022/07/19 03:40:26;;;;;;;;;;;23.40;47.50;;;;;;4998687;28;19941;-77
2022/07/19 03:42:52;;;;;;;;;;;23.40;47.70;;;;;;5000267;28;19926;-76
2022/07/19 03:45:19;;;;;;;;;;;23.30;47.70;;;;;;5000778;28;19929;-78
2022/07/19 03:47:46;;;;;;;;;;;23.30;47.80;;;;;;4996263;28;20284;-77
2022/07/19 03:50:12;;;;;;;;;;;23.30;47.80;;;;;;5001687;28;20606;-77
2022/07/19 03:52:39;;;;;;;;;;;23.30;47.90;;;;;;4997480;28;20835;-78
2022/07/19 03:55:06;;;;;;;;;;;23.30;47.80;;;;;;4998588;28;19929;-77
2022/07/19 03:57:33;;;;;;;;;;;23.20;47.80;;;;;;5002022;28;19926;-76
2022/07/19 04:00:00;;;;;;;;;;;23.20;47.90;;;;;;4997407;28;19937;-77
2022/07/19 04:02:26;;;;;;;;;;;23.20;48.10;;;;;;4996186;28;19940;-75
2022/07/19 04:04:53;;;;;;;;;;;23.10;48.10;;;;;;4996527;28;20390;-77
2022/07/19 04:07:20;;;;;;;;;;;23.10;48.10;;;;;;4996613;28;19930;-78
2022/07/19 04:09:46;;;;;;;;;;;23.10;48.70;;;;;;4997938;28;19934;-77
2022/07/19 04:12:13;;;;;;;;;;;23.10;48.20;;;;;;5000295;28;20458;-77
2022/07/19 04:14:40;;;;;;;;;;;23.00;48.20;;;;;;4998580;28;20306;-78
2022/07/19 04:17:07;;;;;;;;;;;23.00;48.20;;;;;;4999059;28;20370;-77
2022/07/19 04:19:35;;;;;;;;;;;23.00;48.40;;;;;;4998509;28;19940;-76
2022/07/19 04:22:01;;;;;;;;;;;22.90;48.50;;;;;;4997882;28;19930;-75
2022/07/19 04:24:28;;;;;;;;;;;22.90;48.60;;;;;;4996552;28;19934;-77
2022/07/19 04:26:54;;;;;;;;;;;22.90;48.70;;;;;;4995283;28;19930;-76
2022/07/19 04:29:21;;;;;;;;;;;22.90;48.80;;;;;;4992717;28;19964;-76
2022/07/19 04:31:49;;;;;;;;;;;22.90;48.90;;;;;;4996248;28;19997;-76
2022/07/19 04:34:15;;;;;;;;;;;22.80;49.00;;;;;;4993985;28;20107;-77
2022/07/19 04:36:42;;;;;;;;;;;22.80;49.20;;;;;;4995845;28;19933;-77
2022/07/19 04:39:08;;;;;;;;;;;22.80;49.20;;;;;;4997431;28;19941;-75
2022/07/19 04:41:35;;;;;;;;;;;22.70;49.30;;;;;;4999193;28;19940;-77
2022/07/19 04:44:01;;;;;;;;;;;22.70;49.30;;;;;;4999076;28;19937;-77
2022/07/19 04:46:28;;;;;;;;;;;22.70;49.40;;;;;;4995129;28;19934;-77
2022/07/19 04:48:56;;;;;;;;;;;22.70;49.50;;;;;;4998096;28;19936;-77
2022/07/19 04:51:23;;;;;;;;;;;22.60;50.10;;;;;;4998240;28;19934;-76
2022/07/19 04:53:49;;;;;;;;;;;22.60;49.60;;;;;;4997428;28;19929;-76
2022/07/19 04:56:16;;;;;;;;;;;22.60;49.70;;;;;;4998400;28;19929;-76
2022/07/19 04:58:42;;;;;;;;;;;22.60;49.70;;;;;;4997270;28;20369;-76
2022/07/19 05:01:09;;;;;;;;;;;22.60;49.90;;;;;;4998477;28;20348;-77
2022/07/19 05:03:35;;;;;;;;;;;22.50;50.00;;;;;;4998832;28;19941;-76
2022/07/19 05:06:03;;;;;;;;;;;22.50;50.00;;;;;;5007479;28;19932;-75
2022/07/19 05:08:30;;;;;;;;;;;22.40;50.10;;;;;;4995326;28;19936;-77
2022/07/19 05:10:56;;;;;;;;;;;22.50;50.20;;;;;;5001225;28;19929;-76
2022/07/19 05:13:23;;;;;;;;;;;22.40;50.20;;;;;;4997534;28;19929;-76
2022/07/19 05:15:49;;;;;;;;;;;22.40;50.20;;;;;;4995765;28;19951;-74
2022/07/19 05:18:16;;;;;;;;;;;22.40;50.40;;;;;;4999372;28;19940;-75
2022/07/19 05:20:42;;;;;;;;;;;22.30;50.40;;;;;;4998202;28;19934;-76
2022/07/19 05:23:10;;;;;;;;;;;22.30;50.50;;;;;;4998038;28;19930;-77
2022/07/19 05:25:37;;;;;;;;;;;22.40;50.60;;;;;;4997109;28;19934;-75
2022/07/19 05:28:04;;;;;;;;;;;22.30;50.60;;;;;;4999479;28;20394;-76
2022/07/19 05:30:30;;;;;;;;;;;22.30;50.70;;;;;;4999227;28;20007;-78
2022/07/19 05:32:57;;;;;;;;;;;22.30;50.70;;;;;;4994758;28;20502;-75
2022/07/19 05:35:24;;;;;;;;;;;22.30;50.80;;;;;;4996357;28;20382;-77
2022/07/19 05:37:50;;;;;;;;;;;22.30;50.80;;;;;;4998433;28;19930;-77
2022/07/19 05:40:18;;;;;;;;;;;22.20;50.70;;;;;;4997078;28;20432;-77
2022/07/19 05:42:45;;;;;;;;;;;22.20;50.80;;;;;;4999430;28;20298;-77
2022/07/19 05:45:11;;;;;;;;;;;22.20;52.90;;;;;;5001338;28;19929;-77
2022/07/19 05:47:38;;;;;;;;;;;22.10;54.00;;;;;;5001089;28;19940;-77
2022/07/19 05:50:05;;;;;;;;;;;22.00;54.00;;;;;;5004131;28;19952;-76
2022/07/19 05:52:32;;;;;;;;;;;22.00;53.90;;;;;;5002039;28;20694;-78
2022/07/19 05:54:58;;;;;;;;;;;22.00;53.70;;;;;;5003853;28;19940;-77
2022/07/19 05:57:26;;;;;;;;;;;22.00;53.60;;;;;;5003724;28;19930;-77
2022/07/19 05:59:53;;;;;;;;;;;21.90;53.30;;;;;;5003334;28;19929;-77
2022/07/19 06:02:20;;;;;;;;;;;22.00;53.20;;;;;;4999272;28;19987;-77
2022/07/19 06:04:46;;;;;;;;;;;22.00;53.10;;;;;;5003592;28;19929;-76
2022/07/19 06:07:13;;;;;;;;;;;22.10;53.00;;;;;;4998074;28;19941;-76
2022/07/19 06:09:39;;;;;;;;;;;22.10;52.90;;;;;;5001308;28;19929;-77
2022/07/19 06:12:06;;;;;;;;;;;22.10;52.90;;;;;;4999348;28;19933;-77
2022/07/19 06:14:34;;;;;;;;;;;22.10;52.90;;;;;;4998027;28;19964;-77
2022/07/19 06:17:00;;;;;;;;;;;22.10;52.70;;;;;;4998822;28;19937;-77
2022/07/19 06:19:27;;;;;;;;;;;22.20;52.70;;;;;;5002679;28;19929;-77
2022/07/19 06:21:54;;;;;;;;;;;22.20;52.60;;;;;;4998866;28;19937;-78
2022/07/19 06:24:20;;;;;;;;;;;22.20;52.60;;;;;;4996803;28;19936;-77
2022/07/19 06:26:47;;;;;;;;;;;22.20;52.60;;;;;;4995801;28;19936;-74
2022/07/19 06:29:13;;;;;;;;;;;22.20;54.00;;;;;;4997490;28;20566;-76
2022/07/19 06:31:41;;;;;;;;;;;22.30;53.60;;;;;;4994430;28;20314;-77
2022/07/19 06:34:08;;;;;;;;;;;22.30;53.40;;;;;;4993378;28;19930;-76
2022/07/19 06:36:34;;;;;;;;;;;22.40;53.30;;;;;;4995198;28;19940;-76
2022/07/19 06:39:01;;;;;;;;;;;22.50;53.00;;;;;;4996621;28;19937;-75
2022/07/19 06:41:27;;;;;;;;;;;22.60;52.70;;;;;;4999945;28;19937;-74
2022/07/19 06:43:54;;;;;;;;;;;22.70;52.40;;;;;;4999260;28;19930;-75
2022/07/19 06:46:20;;;;;;;;;;;22.80;52.20;;;;;;4997115;28;19929;-75
2022/07/19 06:48:48;;;;;;;;;;;22.80;51.90;;;;;;4998899;28;19936;-77
2022/07/19 06:51:15;;;;;;;;;;;22.90;51.70;;;;;;4996484;28;19933;-78
2022/07/19 06:53:41;;;;;;;;;;;23.00;51.60;;;;;;4997143;28;20172;-77
2022/07/19 06:56:08;;;;;;;;;;;23.10;51.40;;;;;;4999097;28;20341;-75
2022/07/19 06:58:35;;;;;;;;;;;23.10;51.20;;;;;;4997936;28;20025;-76
2022/07/19 07:01:03;;;;;;;;;;;23.20;51.10;;;;;;4997870;28;19934;-77
2022/07/19 07:03:29;;;;;;;;;;;23.30;51.00;;;;;;4998689;28;19940;-76
2022/07/19 07:05:57;;;;;;;;;;;23.30;50.90;;;;;;5004019;28;19929;-76
2022/07/19 07:08:24;;;;;;;;;;;23.40;50.80;;;;;;4999087;28;21170;-76
2022/07/19 07:10:50;;;;;;;;;;;23.40;50.60;;;;;;4997947;28;20394;-77
2022/07/19 07:13:17;;;;;;;;;;;23.40;50.50;;;;;;4994472;28;20008;-75
2022/07/19 07:15:45;;;;;;;;;;;23.50;50.60;;;;;;5001348;28;19933;-75
2022/07/19 07:18:11;;;;;;;;;;;23.50;50.50;;;;;;4999577;28;21867;-76
2022/07/19 07:20:38;;;;;;;;;;;23.60;50.40;;;;;;4999974;28;19948;-75
2022/07/19 07:23:06;;;;;;;;;;;23.60;50.30;;;;;;4996388;28;20345;-77
2022/07/19 07:25:32;;;;;;;;;;;23.70;50.30;;;;;;4999392;28;19977;-77
2022/07/19 07:27:59;;;;;;;;;;;23.70;50.20;;;;;;4999599;28;19930;-75
2022/07/19 07:30:26;;;;;;;;;;;23.80;50.20;;;;;;4995185;28;19941;-74
2022/07/19 07:32:52;;;;;;;;;;;23.80;50.20;;;;;;4988884;28;20009;-77
2022/07/19 07:35:19;;;;;;;;;;;23.80;50.00;;;;;;4989865;28;19937;-76
2022/07/19 07:37:45;;;;;;;;;;;23.80;50.00;;;;;;4997371;28;19934;-77
2022/07/19 07:40:13;;;;;;;;;;;23.90;50.00;;;;;;4989550;28;20436;-76
2022/07/19 07:42:40;;;;;;;;;;;23.90;49.90;;;;;;4995591;28;19940;-75
2022/07/19 07:45:09;;;;;;;;;;;24.00;49.90;;;;;;4999807;28;19959;-76
2022/07/19 07:47:36;;;;;;;;;;;24.00;49.90;;;;;;4999258;28;20152;-76
2022/07/19 07:50:04;;;;;;;;;;;24.00;49.90;;;;;;5000166;28;19930;-75
2022/07/19 07:52:30;;;;;;;;;;;24.10;49.90;;;;;;4996524;28;20789;-77
2022/07/19 07:54:57;;;;;;;;;;;24.10;49.80;;;;;;4995351;28;19929;-75
2022/07/19 07:57:25;;;;;;;;;;;24.20;49.80;;;;;;4995456;28;20065;-74
2022/07/19 07:59:52;;;;;;;;;;;24.20;49.80;;;;;;4998073;28;19929;-76
2022/07/19 08:02:18;;;;;;;;;;;24.20;49.70;;;;;;4997785;28;19941;-76
2022/07/19 08:04:45;;;;;;;;;;;24.30;49.70;;;;;;4995897;28;19926;-76
2022/07/19 08:07:12;;;;;;;;;;;24.30;49.50;;;;;;4992341;28;20382;-77
2022/07/19 08:09:39;;;;;;;;;;;24.30;49.50;;;;;;4990600;28;19930;-78
2022/07/19 08:12:06;;;;;;;;;;;24.40;49.50;;;;;;4992379;28;19929;-78
2022/07/19 08:14:34;;;;;;;;;;;24.40;49.40;;;;;;4988873;28;19936;-78
2022/07/19 08:17:01;;;;;;;;;;;24.50;49.30;;;;;;4992624;28;19929;-78
2022/07/19 08:19:28;;;;;;;;;;;24.50;49.20;;;;;;4993539;28;19940;-78
2022/07/19 08:21:54;;;;;;;;;;;24.50;49.00;;;;;;4992110;28;19930;-78
2022/07/19 08:24:21;;;;;;;;;;;24.60;49.00;;;;;;4989691;28;20007;-78
2022/07/19 08:26:47;;;;;;;;;;;24.60;48.90;;;;;;4995197;28;19956;-78
2022/07/19 08:29:14;;;;;;;;;;;24.70;48.80;;;;;;4990665;28;19936;-79
2022/07/19 08:31:42;;;;;;;;;;;24.70;48.70;;;;;;4993284;28;19936;-79
2022/07/19 08:34:08;;;;;;;;;;;24.70;48.60;;;;;;4997580;28;19929;-79
2022/07/19 08:36:35;;;;;;;;;;;24.80;48.60;;;;;;4998927;28;19929;-79
2022/07/19 08:39:02;;;;;;;;;;;24.80;48.40;;;;;;4994340;28;19937;-79
2022/07/19 08:41:28;;;;;;;;;;;24.90;48.20;;;;;;4996651;28;20328;-79
2022/07/19 08:43:55;;;;;;;;;;;24.90;48.10;;;;;;4993875;28;20461;-80
2022/07/19 08:46:21;;;;;;;;;;;25.00;48.00;;;;;;4999227;28;20520;-79
2022/07/19 08:48:49;;;;;;;;;;;25.00;47.90;;;;;;5002780;28;20388;-79
2022/07/19 08:51:18;;;;;;;;;;;25.10;47.70;;;;;;4995253;28;19937;-79
2022/07/19 08:53:46;;;;;;;;;;;25.10;47.50;;;;;;4992141;28;19936;-79
2022/07/19 08:58:56;;;;;;;;;;;25.20;47.30;;;;;;4996525;28;19937;-79
2022/07/19 09:01:23;;;;;;;;;;;25.30;47.20;;;;;;4997247;28;19969;-79
2022/07/19 09:04:04;;;;;;;;;;;25.30;46.90;;;;;;4999001;28;19940;-79
2022/07/19 09:06:37;;;;;;;;;;;25.40;46.70;;;;;;4993400;28;19937;-78
2022/07/19 09:09:04;;;;;;;;;;;25.40;46.60;;;;;;4994870;28;20052;-78
2022/07/19 09:11:34;;;;;;;;;;;25.50;46.50;;;;;;4993113;28;19934;-78
2022/07/19 09:14:04;;;;;;;;;;;25.60;46.20;;;;;;4996972;28;20429;-77
2022/07/19 09:16:48;;;;;;;;;;;25.60;45.80;;;;;;4998531;28;19930;-78
2022/07/19 09:19:20;;;;;;;;;;;25.70;45.60;;;;;;4991491;28;20563;-75
2022/07/19 09:21:57;;;;;;;;;;;25.80;45.10;;;;;;4994639;28;20844;-76
2022/07/19 09:24:25;;;;;;;;;;;25.80;44.90;;;;;;4993256;28;19929;-78
2022/07/19 09:26:55;;;;;;;;;;;25.90;44.70;;;;;;4997192;28;20698;-75
2022/07/19 09:29:22;;;;;;;;;;;26.00;44.40;;;;;;4992458;28;20020;-76
2022/07/19 09:31:58;;;;;;;;;;;26.00;44.00;;;;;;4996017;28;19940;-76
2022/07/19 09:34:30;;;;;;;;;;;26.10;43.70;;;;;;4994792;28;20115;-77
2022/07/19 09:37:16;;;;;;;;;;;26.10;43.60;;;;;;4994606;28;19929;-75
2022/07/19 09:39:45;;;;;;;;;;;26.20;43.50;;;;;;4990157;28;19960;-76
2022/07/19 09:42:11;;;;;;;;;;;26.30;43.10;;;;;;4994836;28;20614;-76
2022/07/19 09:44:38;;;;;;;;;;;26.40;43.10;;;;;;4995591;28;19930;-76
2022/07/19 09:47:05;;;;;;;;;;;26.40;42.60;;;;;;4996666;28;19925;-76
2022/07/19 09:49:32;;;;;;;;;;;26.50;42.20;;;;;;4995127;28;19929;-74
2022/07/19 09:52:01;;;;;;;;;;;26.60;41.90;;;;;;4995566;28;19952;-75
2022/07/19 09:54:29;;;;;;;;;;;26.70;41.70;;;;;;4996667;28;19933;-75
2022/07/19 09:56:56;;;;;;;;;;;26.80;41.60;;;;;;4995920;28;19930;-78
2022/07/19 09:59:23;;;;;;;;;;;26.90;41.20;;;;;;5000083;28;19929;-78
2022/07/19 10:01:51;;;;;;;;;;;26.90;40.90;;;;;;4993427;28;19935;-78
2022/07/19 10:04:19;;;;;;;;;;;27.00;40.80;;;;;;5003551;28;19964;-78
2022/07/19 10:06:48;;;;;;;;;;;27.10;40.40;;;;;;4995562;28;19940;-78
2022/07/19 10:09:15;;;;;;;;;;;27.20;40.50;;;;;;4995578;28;19930;-78
2022/07/19 10:11:42;;;;;;;;;;;27.30;40.20;;;;;;4997370;28;19933;-78
2022/07/19 10:14:09;;;;;;;;;;;27.30;40.00;;;;;;4994819;28;19930;-77
2022/07/19 10:16:42;;;;;;;;;;;27.40;39.60;;;;;;5000111;28;20283;-78
2022/07/19 10:19:13;;;;;;;;;;;27.50;39.30;;;;;;4996251;28;19929;-78
2022/07/19 10:21:40;;;;;;;;;;;27.60;39.00;;;;;;4997345;28;19934;-77
2022/07/19 10:24:08;;;;;;;;;;;27.70;38.90;;;;;;5002462;28;19929;-79
2022/07/19 10:26:35;;;;;;;;;;;27.80;38.80;;;;;;4997949;28;20326;-78
2022/07/19 10:29:09;;;;;;;;;;;27.80;39.20;;;;;;4997501;28;20335;-78
2022/07/19 10:31:36;;;;;;;;;;;27.90;38.50;;;;;;4994059;28;20032;-78
2022/07/19 10:34:04;;;;;;;;;;;28.00;38.60;;;;;;4994693;28;19929;-79
2022/07/19 10:36:34;;;;;;;;;;;28.10;38.50;;;;;;4990605;28;19952;-78
2022/07/19 10:39:20;;;;;;;;;;;28.20;38.30;;;;;;4992662;28;19959;-77
2022/07/19 10:42:01;;;;;;;;;;;28.30;38.10;;;;;;4993436;28;20240;-78
2022/07/19 10:44:29;;;;;;;;;;;28.40;37.90;;;;;;4990984;28;19933;-79
2022/07/19 10:46:56;;;;;;;;;;;28.50;37.90;;;;;;4994965;28;20585;-79
2022/07/19 10:49:41;;;;;;;;;;;28.50;37.80;;;;;;4990383;28;20318;-79
2022/07/19 10:52:23;;;;;;;;;;;28.60;37.60;;;;;;4993691;28;19933;-77
2022/07/19 10:55:20;;;;;;;;;;;28.70;37.40;;;;;;4994690;28;21177;-78
2022/07/19 10:57:48;;;;;;;;;;;28.80;37.40;;;;;;4997694;28;19938;-79
2022/07/19 11:00:18;;;;;;;;;;;28.90;37.20;;;;;;4993221;28;19933;-78
2022/07/19 11:02:45;;;;;;;;;;;29.00;37.10;;;;;;4993753;28;19936;-79
2022/07/19 11:05:22;;;;;;;;;;;29.10;37.10;;;;;;4992598;28;19929;-78
2022/07/19 11:07:49;;;;;;;;;;;29.20;37.10;;;;;;4993342;28;19929;-79
2022/07/19 11:10:21;;;;;;;;;;;29.30;36.90;;;;;;4994736;28;19929;-78
2022/07/19 11:12:49;;;;;;;;;;;29.40;36.80;;;;;;4992349;28;19952;-79
2022/07/19 11:15:16;;;;;;;;;;;29.40;36.70;;;;;;4994244;28;19936;-78
2022/07/19 11:17:53;;;;;;;;;;;29.50;36.10;;;;;;4989253;28;20415;-79
2022/07/19 11:20:22;;;;;;;;;;;29.60;36.20;;;;;;4988731;28;21728;-77
2022/07/19 11:22:49;;;;;;;;;;;29.70;36.20;;;;;;4995813;28;19936;-78
2022/07/19 11:25:16;;;;;;;;;;;29.80;36.20;;;;;;4998856;28;19941;-77
2022/07/19 11:27:44;;;;;;;;;;;29.90;36.10;;;;;;4993335;28;19929;-79
2022/07/19 11:30:13;;;;;;;;;;;29.90;35.90;;;;;;4988982;28;19929;-79
2022/07/19 11:32:41;;;;;;;;;;;30.00;35.90;;;;;;4998281;28;20322;-78
2022/07/19 11:35:08;;;;;;;;;;;30.10;35.50;;;;;;4996889;28;19984;-78
2022/07/19 11:37:36;;;;;;;;;;;30.20;35.40;;;;;;4999792;28;19936;-79
2022/07/19 11:40:04;;;;;;;;;;;30.30;35.30;;;;;;4999694;28;20348;-79
2022/07/19 11:42:32;;;;;;;;;;;30.30;35.30;;;;;;4999300;28;19972;-78
2022/07/19 11:44:59;;;;;;;;;;;30.40;35.00;;;;;;5001128;28;19983;-78
2022/07/19 11:47:27;;;;;;;;;;;30.50;35.00;;;;;;4998611;28;19929;-79
2022/07/19 11:49:54;;;;;;;;;;;30.60;35.00;;;;;;4997224;28;19929;-78
2022/07/19 11:52:20;;;;;;;;;;;30.60;34.70;;;;;;4997335;28;19941;-78
2022/07/19 11:55:00;;;;;;;;;;;30.70;34.50;;;;;;5000705;28;19930;-79
2022/07/19 11:57:27;;;;;;;;;;;30.70;34.40;;;;;;4995181;28;19973;-80
2022/07/19 11:59:53;;;;;;;;;;;30.90;34.40;;;;;;5003183;28;19936;-80
2022/07/19 12:02:20;;;;;;;;;;;30.90;34.30;;;;;;4997549;28;19937;-79
2022/07/19 12:04:48;;;;;;;;;;;31.00;34.40;;;;;;4997745;28;19936;-79
2022/07/19 12:07:16;;;;;;;;;;;31.10;34.40;;;;;;4998688;28;19937;-79
2022/07/19 12:09:43;;;;;;;;;;;31.10;34.00;;;;;;5002217;28;19937;-80
2022/07/19 12:12:13;;;;;;;;;;;31.20;33.50;;;;;;5003118;28;19966;-79
2022/07/19 12:14:40;;;;;;;;;;;31.20;33.50;;;;;;5009173;28;19941;-79
2022/07/19 12:17:11;;;;;;;;;;;31.30;33.40;;;;;;5007409;28;19929;-79
2022/07/19 12:19:37;;;;;;;;;;;31.40;33.40;;;;;;5004462;28;20342;-79
2022/07/19 12:22:06;;;;;;;;;;;31.50;32.90;;;;;;5002597;28;19930;-78
2022/07/19 12:24:43;;;;;;;;;;;31.50;33.10;;;;;;5002045;28;20016;-78
2022/07/19 12:27:10;;;;;;;;;;;31.60;32.80;;;;;;5003662;28;19929;-79
2022/07/19 12:29:37;;;;;;;;;;;31.60;32.20;;;;;;5004068;28;20657;-79
2022/07/19 12:32:04;;;;;;;;;;;31.70;32.30;;;;;;4997342;28;19929;-78
2022/07/19 12:34:42;;;;;;;;;;;31.70;32.50;;;;;;4999235;28;19936;-78
2022/07/19 12:37:19;;;;;;;;;;;31.80;32.30;;;;;;5000602;28;19937;-77
2022/07/19 12:39:55;;;;;;;;;;;31.90;32.50;;;;;;4999967;28;19937;-78
2022/07/19 12:42:22;;;;;;;;;;;32.00;32.50;;;;;;5001267;28;19934;-77
2022/07/19 12:44:49;;;;;;;;;;;32.00;32.20;;;;;;5002186;28;19936;-78
2022/07/19 12:47:15;;;;;;;;;;;32.10;32.10;;;;;;5000302;28;20793;-78
2022/07/19 12:49:42;;;;;;;;;;;32.10;31.70;;;;;;4999750;28;19934;-78
2022/07/19 12:52:09;;;;;;;;;;;32.20;31.60;;;;;;4999490;28;19964;-78
2022/07/19 12:54:37;;;;;;;;;;;32.20;31.70;;;;;;5001678;28;20017;-78
2022/07/19 12:57:04;;;;;;;;;;;32.30;31.90;;;;;;5001079;28;19930;-77
2022/07/19 12:59:40;;;;;;;;;;;32.40;31.70;;;;;;5000517;28;19937;-78
2022/07/19 13:02:06;;;;;;;;;;;32.40;31.70;;;;;;5000263;28;19940;-79
2022/07/19 13:04:33;;;;;;;;;;;32.50;31.60;;;;;;5002374;28;19933;-79
2022/07/19 13:06:59;;;;;;;;;;;32.50;31.00;;;;;;4997933;28;19941;-79
2022/07/19 13:09:26;;;;;;;;;;;32.60;29.00;;;;;;4999826;28;19934;-80
2022/07/19 13:11:54;;;;;;;;;;;32.90;27.60;;;;;;5000844;28;19929;-80
2022/07/19 13:14:21;;;;;;;;;;;33.10;28.60;;;;;;5000971;28;19936;-79
2022/07/19 13:16:47;;;;;;;;;;;33.10;28.70;;;;;;5001825;28;19929;-80
2022/07/19 13:19:14;;;;;;;;;;;33.10;28.90;;;;;;5001685;28;19937;-79
2022/07/19 13:21:41;;;;;;;;;;;33.10;29.30;;;;;;4990553;28;19933;-79
2022/07/19 13:24:07;;;;;;;;;;;33.10;29.40;;;;;;4994804;28;20398;-81
2022/07/19 13:26:34;;;;;;;;;;;33.10;29.50;;;;;;4991702;28;19929;-80
2022/07/19 13:29:02;;;;;;;;;;;33.10;29.60;;;;;;4994068;28;19933;-79
2022/07/19 13:31:28;;;;;;;;;;;33.10;29.50;;;;;;5004219;28;19929;-79
2022/07/19 13:33:55;;;;;;;;;;;33.10;29.30;;;;;;5003048;28;20194;-79
2022/07/19 13:36:21;;;;;;;;;;;33.20;29.50;;;;;;5001060;28;19934;-80
2022/07/19 13:38:49;;;;;;;;;;;33.20;29.30;;;;;;4998570;28;19936;-80
2022/07/19 13:41:16;;;;;;;;;;;33.20;29.40;;;;;;4996117;28;19936;-79
2022/07/19 13:43:43;;;;;;;;;;;33.30;29.80;;;;;;5001712;28;21697;-81
2022/07/19 13:46:11;;;;;;;;;;;33.30;29.70;;;;;;5002501;28;19964;-80
2022/07/19 13:48:38;;;;;;;;;;;33.40;29.60;;;;;;5002842;28;19929;-80
2022/07/19 13:51:04;;;;;;;;;;;33.40;29.40;;;;;;5001819;28;19936;-80
2022/07/19 13:53:31;;;;;;;;;;;33.50;29.30;;;;;;5005191;28;19929;-80
2022/07/19 13:55:57;;;;;;;;;;;33.50;29.20;;;;;;5004620;28;19929;-81
2022/07/19 13:58:24;;;;;;;;;;;33.60;29.40;;;;;;5005534;28;19929;-81
2022/07/19 14:00:51;;;;;;;;;;;33.60;29.00;;;;;;5002565;28;19940;-81
2022/07/19 14:03:20;;;;;;;;;;;33.70;29.00;;;;;;4997502;28;20426;-79
2022/07/19 14:05:47;;;;;;;;;;;34.10;25.90;;;;;;4990624;28;20633;-80
2022/07/19 14:08:14;;;;;;;;;;;34.50;26.00;;;;;;4999665;28;19948;-80
2022/07/19 14:10:41;;;;;;;;;;;34.80;26.30;;;;;;4998586;28;19938;-80
2022/07/19 14:13:08;;;;;;;;;;;35.00;26.20;;;;;;4995699;28;19936;-81
2022/07/19 14:15:35;;;;;;;;;;;35.20;26.30;;;;;;5001691;28;20401;-80
2022/07/19 14:18:01;;;;;;;;;;;35.30;26.40;;;;;;4994255;28;19940;-80
2022/07/19 14:20:29;;;;;;;;;;;35.40;26.70;;;;;;4999726;28;20338;-80
2022/07/19 14:22:56;;;;;;;;;;;35.50;26.70;;;;;;5001204;28;19928;-80
2022/07/19 14:25:23;;;;;;;;;;;35.60;26.80;;;;;;4997440;28;20467;-80